Time;durP1;ratioP1;P1;durP2;ratioP2;P2;SDS_P1;SDS_P2;PMS_P1;PMS_P2;Temp;Humidity;BMP_temperature;BMP_pressure;BME280_temperature;BME280_humidity;BME280_pressure;Samples;Min_cycle;Max_cycle;Signal;HPM_P1;HPM_P2
2022/08/04 00:03:06;;;;;;;10.25;7.45;;;;;;;20.47;63.16;99384.47;5058167;28;20124;-69
2022/08/04 00:05:53;;;;;;;14.70;8.75;;;;;;;20.22;64.17;99398.66;5019978;28;20052;-69
2022/08/04 00:08:44;;;;;;;9.48;8.52;;;;;;;20.23;64.35;99388.91;5034153;28;20029;-69
2022/08/04 00:11:24;;;;;;;9.73;8.10;;;;;;;20.22;64.34;99399.44;5033084;28;20021;-69
2022/08/04 00:13:56;;;;;;;8.88;8.07;;;;;;;20.16;64.61;99398.22;5033906;28;20038;-69
2022/08/04 00:16:23;;;;;;;10.00;8.15;;;;;;;20.30;64.06;99400.25;5032664;28;20049;-69
2022/08/04 00:18:54;;;;;;;10.88;8.52;;;;;;;20.19;64.09;99401.06;5031780;28;20026;-70
2022/08/04 00:21:40;;;;;;;9.23;8.32;;;;;;;20.27;64.04;99406.75;5033148;28;20021;-69
2022/08/04 00:24:10;;;;;;;10.35;8.07;;;;;;;20.34;64.17;99403.94;5031621;28;20095;-70
2022/08/04 00:26:36;;;;;;;9.60;8.27;;;;;;;20.20;64.43;99405.50;5014097;28;20136;-69
2022/08/04 00:29:02;;;;;;;11.63;9.02;;;;;;;20.18;64.63;99412.84;5030703;28;20572;-70
2022/08/04 00:31:27;;;;;;;9.55;8.68;;;;;;;20.46;63.73;99408.41;5030502;28;20034;-70
2022/08/04 00:33:54;;;;;;;11.35;9.10;;;;;;;20.12;64.78;99403.06;5031556;28;20103;-70
2022/08/04 00:36:20;;;;;;;10.60;8.40;;;;;;;20.05;65.02;99410.38;5003383;28;20026;-69
2022/08/04 00:38:46;;;;;;;10.43;9.32;;;;;;;20.11;64.90;99418.47;5011826;28;20037;-70
2022/08/04 00:41:49;;;;;;;9.60;8.60;;;;;;;20.06;65.21;99422.53;5026505;28;20179;-69
2022/08/04 00:44:38;;;;;;;11.13;9.90;;;;;;;19.80;65.96;99418.75;5031253;28;20081;-69
2022/08/04 00:47:16;;;;;;;10.20;9.20;;;;;;;19.69;66.28;99417.91;5030273;28;20108;-70
2022/08/04 00:50:04;;;;;;;20.08;9.50;;;;;;;19.84;65.84;99416.75;4995289;28;20077;-69
2022/08/04 00:52:47;;;;;;;13.60;9.32;;;;;;;19.84;65.64;99415.94;5021621;28;20029;-69
2022/08/04 00:55:57;;;;;;;9.48;8.57;;;;;;;19.96;65.28;99415.59;5021057;28;20545;-69
2022/08/04 00:58:31;;;;;;;11.35;8.70;;;;;;;19.97;65.39;99416.41;4972317;28;20031;-70
2022/08/04 01:01:05;;;;;;;16.20;9.38;;;;;;;20.21;64.78;99417.69;5023048;28;20095;-70
2022/08/04 01:03:44;;;;;;;9.10;8.30;;;;;;;20.41;64.06;99415.28;5033108;28;20018;-70
2022/08/04 01:06:34;;;;;;;10.88;7.97;;;;;;;20.65;63.38;99420.59;5032316;28;20068;-69
2022/08/04 01:09:08;;;;;;;9.05;7.47;;;;;;;20.92;62.34;99409.63;5030842;28;20025;-70
2022/08/04 01:12:26;;;;;;;9.38;8.35;;;;;;;21.23;61.23;99409.19;5031932;28;20156;-70
2022/08/04 01:15:02;;;;;;;9.15;7.28;;;;;;;21.24;60.76;99408.00;4998191;28;20048;-70
2022/08/04 01:17:35;;;;;;;12.18;7.80;;;;;;;21.36;60.57;99409.56;5032837;28;20014;-70
2022/08/04 01:20:06;;;;;;;7.82;7.03;;;;;;;21.62;59.70;99408.28;5032150;28;20393;-70
2022/08/04 01:22:31;;;;;;;10.32;8.63;;;;;;;21.40;60.43;99411.19;5031114;28;20032;-69
2022/08/04 01:25:20;;;;;;;8.73;7.80;;;;;;;20.79;62.70;99414.91;5032104;28;20029;-69
2022/08/04 01:28:10;;;;;;;10.70;8.27;;;;;;;20.51;63.17;99416.50;5032376;28;20053;-69
2022/08/04 01:30:41;;;;;;;10.18;8.15;;;;;;;19.88;64.87;99411.09;5030360;28;20550;-69
2022/08/04 01:33:16;;;;;;;12.27;9.00;;;;;;;19.67;66.05;99421.16;5011297;28;20084;-69
2022/08/04 01:35:54;;;;;;;10.38;9.38;;;;;;;19.78;65.79;99413.47;5021676;28;20091;-69
2022/08/04 01:38:36;;;;;;;11.20;8.80;;;;;;;20.07;65.20;99418.47;5031309;28;20112;-69
2022/08/04 01:41:08;;;;;;;9.93;8.93;;;;;;;20.48;63.27;99417.31;5031699;28;20067;-69
2022/08/04 01:43:39;;;;;;;10.25;9.15;;;;;;;20.10;64.84;99422.53;5016730;28;20419;-69
2022/08/04 01:46:04;;;;;;;16.75;9.38;;;;;;;19.96;65.04;99418.44;5022550;28;20408;-69
2022/08/04 01:48:31;;;;;;;11.15;10.05;;;;;;;20.00;65.17;99409.94;5030892;28;20034;-69
2022/08/04 01:51:01;;;;;;;11.18;9.30;;;;;;;20.06;65.00;99423.34;5031447;28;20025;-70
2022/08/04 01:53:38;;;;;;;11.55;8.52;;;;;;;20.26;64.37;99419.34;5031754;28;20419;-69
2022/08/04 01:56:05;;;;;;;25.90;8.65;;;;;;;20.32;64.01;99421.38;5023779;28;20053;-69
2022/08/04 01:58:49;;;;;;;8.30;7.60;;;;;;;20.11;64.50;99418.47;5013027;28;20029;-69
2022/08/04 02:01:14;;;;;;;11.50;9.55;;;;;;;20.08;64.80;99430.66;5021926;28;20022;-69
2022/08/04 02:03:42;;;;;;;10.50;7.88;;;;;;;19.60;66.35;99424.75;5012180;28;20033;-69
2022/08/04 02:06:20;;;;;;;11.45;9.75;;;;;;;19.42;66.93;99421.81;5015170;28;20048;-69
2022/08/04 02:09:08;;;;;;;10.43;9.43;;;;;;;19.69;66.18;99421.56;5030509;28;20120;-69
2022/08/04 02:11:33;;;;;;;9.63;8.73;;;;;;;19.85;65.51;99420.41;5030994;28;20032;-69
2022/08/04 02:14:39;;;;;;;8.80;8.00;;;;;;;20.13;64.66;99416.03;5030323;28;20049;-69
2022/08/04 02:17:24;;;;;;;11.27;9.07;;;;;;;20.26;64.22;99410.81;5022802;28;20018;-69
2022/08/04 02:20:13;;;;;;;13.23;8.95;;;;;;;20.25;64.25;99412.81;5015213;28;20021;-70
2022/08/04 02:22:51;;;;;;;9.15;8.20;;;;;;;20.14;64.83;99418.50;5031668;28;20521;-70
2022/08/04 02:25:23;;;;;;;9.82;8.82;;;;;;;19.88;66.00;99417.59;5031540;28;20099;-69
2022/08/04 02:28:20;;;;;;;13.43;9.13;;;;;;;19.98;65.88;99433.03;5029480;28;20033;-69
2022/08/04 02:30:50;;;;;;;10.35;9.27;;;;;;;20.09;65.56;99435.09;5029428;28;20034;-69
2022/08/04 02:33:25;;;;;;;12.30;8.18;;;;;;;20.02;65.64;99431.03;5031429;28;20025;-69
2022/08/04 02:35:57;;;;;;;9.90;8.80;;;;;;;20.08;65.33;99439.16;5031456;28;20025;-69
2022/08/04 02:38:35;;;;;;;10.70;8.32;;;;;;;19.97;65.37;99436.28;5029056;28;20032;-69
2022/08/04 02:41:03;;;;;;;11.90;9.20;;;;;;;19.92;65.82;99441.13;5019763;28;20514;-69
2022/08/04 02:43:30;;;;;;;18.15;8.93;;;;;;;19.77;66.28;99445.09;5014512;28;20091;-69
2022/08/04 02:45:56;;;;;;;13.32;9.82;;;;;;;19.91;66.16;99439.47;5013558;28;20040;-69
2022/08/04 02:48:24;;;;;;;10.27;8.55;;;;;;;19.94;65.87;99437.91;5021944;28;20021;-69
2022/08/04 02:50:52;;;;;;;31.92;9.95;;;;;;;19.67;66.65;99437.34;5030071;28;20021;-69
2022/08/04 02:53:21;;;;;;;14.00;8.93;;;;;;;19.53;67.10;99430.41;5030500;28;20025;-69
2022/08/04 02:55:47;;;;;;;11.95;9.70;;;;;;;19.43;67.88;99436.81;5031054;28;20021;-69
2022/08/04 02:58:18;;;;;;;11.70;9.70;;;;;;;19.32;68.06;99436.78;5028425;28;20025;-70
2022/08/04 03:00:44;;;;;;;16.67;10.40;;;;;;;19.55;67.46;99439.31;5029930;28;20055;-69
2022/08/04 03:03:37;;;;;;;14.48;10.25;;;;;;;19.63;67.31;99434.50;5031110;28;20108;-68
2022/08/04 03:06:10;;;;;;;40.03;10.75;;;;;;;19.55;67.42;99435.66;5049687;28;20045;-70
2022/08/04 03:09:20;;;;;;;11.35;10.20;;;;;;;19.43;67.78;99431.97;5024261;28;20052;-70
2022/08/04 03:12:12;;;;;;;12.98;10.65;;;;;;;19.48;67.57;99442.09;5025553;28;20034;-70
2022/08/04 03:14:52;;;;;;;10.63;9.52;;;;;;;19.40;68.10;99438.41;5030785;28;20049;-69
2022/08/04 03:17:35;;;;;;;;;;;;;;;19.27;68.60;99448.47;5026627;28;20037;-69
2022/08/04 03:20:15;;;;;;;14.45;10.45;;;;;;;19.10;69.49;99447.97;5011279;28;19940;-68
2022/08/04 03:22:46;;;;;;;13.07;10.00;;;;;;;18.89;70.48;99448.59;5028315;28;20411;-68
2022/08/04 03:25:56;;;;;;;11.98;10.77;;;;;;;19.14;69.54;99443.13;5029563;28;20080;-68
2022/08/04 03:28:22;;;;;;;15.35;9.65;;;;;;;19.36;68.78;99444.06;4995901;28;20126;-69
2022/08/04 03:31:13;;;;;;;14.93;9.70;;;;;;;19.34;68.62;99445.69;5003089;28;20026;-69
2022/08/04 03:34:03;;;;;;;12.32;10.00;;;;;;;18.90;69.97;99456.69;5030722;28;20075;-69
2022/08/04 03:36:58;;;;;;;14.18;10.75;;;;;;;18.78;70.86;99448.50;5028842;28;20530;-68
2022/08/04 03:40:28;;;;;;;17.23;12.02;;;;;;;18.85;70.30;99447.72;5029445;28;20029;-68
2022/08/04 03:43:12;;;;;;;12.13;10.93;;;;;;;18.75;70.58;99452.91;5012854;28;20630;-68
2022/08/04 03:46:02;;;;;;;14.48;10.77;;;;;;;18.74;70.41;99451.28;5009515;28;20181;-69
2022/08/04 03:48:30;;;;;;;15.02;11.15;;;;;;;18.63;70.43;99441.88;5008593;28;20030;-68
2022/08/04 03:54:56;;;;;;;12.75;10.07;;;;;;;18.60;70.47;99437.84;5028690;28;20140;-68
2022/08/04 03:57:51;;;;;;;18.45;10.90;;;;;;;18.41;70.94;99447.34;5017084;28;20033;-69
2022/08/04 04:00:20;;;;;;;13.43;10.23;;;;;;;18.22;71.95;99448.34;5009109;28;20026;-69
2022/08/04 04:03:10;;;;;;;11.43;10.20;;;;;;;18.30;72.05;99447.22;5021325;28;20204;-69
2022/08/04 04:06:13;;;;;;;13.70;11.05;;;;;;;18.34;71.80;99448.09;5031912;28;20029;-69
2022/08/04 04:08:47;;;;;;;16.13;9.80;;;;;;;18.58;70.79;99450.75;5012069;28;20432;-69
2022/08/04 04:15:02;;;;;;;16.67;10.45;;;;;;;18.51;71.53;99457.16;5033719;28;20052;-68
2022/08/04 04:17:33;;;;;;;18.88;9.77;;;;;;;18.69;70.62;99448.81;5025546;28;20029;-69
2022/08/04 04:20:25;;;;;;;16.67;9.60;;;;;;;18.61;71.12;99453.63;5012821;28;20029;-68
2022/08/04 04:23:09;;;;;;;13.40;9.95;;;;;;;18.60;70.94;99454.81;5018538;28;20064;-69
2022/08/04 04:26:00;;;;;;;14.82;9.00;;;;;;;18.78;70.47;99457.00;5033724;28;20021;-69
2022/08/04 04:28:34;;;;;;;15.48;9.63;;;;;;;18.90;70.32;99453.06;5015832;28;20034;-68
2022/08/04 04:31:18;;;;;;;11.60;9.38;;;;;;;18.92;69.97;99454.25;5012622;28;20029;-68
2022/08/04 04:33:50;;;;;;;16.23;9.55;;;;;;;18.82;70.71;99452.16;5027158;28;20063;-68
2022/08/04 04:37:03;;;;;;;11.23;9.70;;;;;;;18.90;70.26;99464.38;5033340;28;20072;-69
2022/08/04 04:39:32;;;;;;;12.38;8.55;;;;;;;18.96;69.97;99457.13;5005361;28;20134;-69
2022/08/04 04:42:16;;;;;;;13.07;9.32;;;;;;;19.12;69.54;99456.88;5013736;28;20025;-68
2022/08/04 04:45:01;;;;;;;10.00;8.85;;;;;;;19.15;69.65;99461.75;5012326;28;20121;-68
2022/08/04 04:47:36;;;;;;;27.23;10.48;;;;;;;19.22;69.64;99464.66;5013892;28;20033;-68
2022/08/04 04:50:15;;;;;;;38.08;10.15;;;;;;;19.35;69.17;99467.16;5013475;28;20157;-67
2022/08/04 04:53:26;;;;;;;16.38;10.15;;;;;;;19.65;67.85;99466.09;5015226;28;20566;-68
2022/08/04 04:56:30;;;;;;;10.35;9.15;;;;;;;19.92;67.04;99474.38;5012088;28;20060;-67
2022/08/04 04:58:57;;;;;;;10.52;8.18;;;;;;;20.02;66.34;99473.59;5003147;28;20041;-67
2022/08/04 05:01:41;;;;;;;12.38;8.57;;;;;;;20.20;65.94;99472.88;5032370;28;20056;-68
2022/08/04 05:04:43;;;;;;;17.17;8.52;;;;;;;20.18;65.19;99458.25;5032390;28;20103;-68
2022/08/04 05:07:49;;;;;;;12.32;8.88;;;;;;;20.06;65.56;99480.13;5032287;28;20029;-67
2022/08/04 05:10:33;;;;;;;18.35;9.10;;;;;;;20.28;64.64;99470.84;5032124;28;20408;-67
2022/08/04 05:13:07;;;;;;;14.45;8.50;;;;;;;20.51;63.97;99472.53;5022548;28;20549;-68
2022/08/04 05:15:36;;;;;;;8.40;7.60;;;;;;;20.53;63.77;99468.06;5021146;28;20034;-67
2022/08/04 05:18:05;;;;;;;20.73;8.48;;;;;;;20.51;63.47;99476.16;5023655;28;20574;-68
2022/08/04 05:20:39;;;;;;;22.00;8.40;;;;;;;20.67;62.67;99469.31;5012889;28;20388;-67
2022/08/04 05:23:14;;;;;;;12.45;7.65;;;;;;;20.76;62.43;99481.88;5029254;28;20037;-67
2022/08/04 05:25:45;;;;;;;13.98;7.70;;;;;;;20.36;63.20;99485.88;5030281;28;20033;-67
2022/08/04 05:28:41;;;;;;;16.95;8.68;;;;;;;20.27;64.10;99494.78;5030553;28;20021;-67
2022/08/04 05:31:19;;;;;;;14.73;8.50;;;;;;;20.25;63.77;99492.34;5016287;28;20041;-67
2022/08/04 05:33:59;;;;;;;19.55;8.85;;;;;;;20.22;63.98;99489.50;5029819;28;20500;-67
2022/08/04 05:36:54;;;;;;;18.52;8.43;;;;;;;20.45;63.49;99480.63;5025235;28;20096;-66
2022/08/04 05:39:29;;;;;;;11.00;7.80;;;;;;;20.67;62.40;99492.03;5030737;28;20112;-69
2022/08/04 05:41:57;;;;;;;16.00;8.30;;;;;;;20.55;62.39;99479.84;5032217;28;20493;-68
2022/08/04 05:44:25;;;;;;;14.35;8.38;;;;;;;20.67;62.79;99481.47;5030582;28;20110;-69
2022/08/04 05:46:54;;;;;;;9.70;8.35;;;;;;;20.80;62.32;99481.06;5016106;28;20160;-68
2022/08/04 05:49:23;;;;;;;14.38;8.38;;;;;;;20.84;62.22;99471.38;5013543;28;20053;-69
2022/08/04 05:52:03;;;;;;;13.23;9.40;;;;;;;21.17;61.37;99491.25;5022540;28;20051;-68
2022/08/04 05:54:34;;;;;;;20.75;10.32;;;;;;;21.52;60.57;99491.63;5021310;28;20041;-70
2022/08/04 05:57:34;;;;;;;16.70;9.30;;;;;;;21.74;59.48;99492.41;5022899;28;20113;-68
2022/08/04 06:00:04;;;;;;;14.38;9.00;;;;;;;22.12;58.71;99486.19;5021463;28;20036;-70
2022/08/04 06:02:30;;;;;;;;;;;;;;;22.25;57.69;99480.81;5026597;28;20033;-68
2022/08/04 06:05:24;;;;;;;11.68;7.93;;;;;;;22.34;56.57;99486.06;5017941;28;19971;-68
2022/08/04 06:07:49;;;;;;;13.73;6.97;;;;;;;22.44;56.28;99482.31;5029258;28;20037;-69
2022/08/04 06:10:18;;;;;;;11.65;7.50;;;;;;;22.55;55.63;99474.53;5028603;28;20056;-70
2022/08/04 06:12:52;;;;;;;9.60;7.43;;;;;;;22.79;55.88;99486.19;5027198;28;20026;-70
2022/08/04 06:15:20;;;;;;;9.35;7.00;;;;;;;22.73;55.10;99485.03;5044871;28;20091;-67
2022/08/04 06:18:11;;;;;;;10.40;7.68;;;;;;;22.90;55.23;99485.31;5046178;28;20458;-68
2022/08/04 06:20:40;;;;;;;12.23;8.95;;;;;;;22.68;55.58;99480.56;5026773;28;20515;-68
2022/08/04 06:23:09;;;;;;;12.07;7.47;;;;;;;22.86;54.88;99479.63;5019555;28;20032;-68
2022/08/04 06:25:43;;;;;;;10.70;7.47;;;;;;;23.14;54.96;99475.72;5027537;28;20072;-68
2022/08/04 06:28:10;;;;;;;13.35;7.95;;;;;;;23.30;54.48;99467.88;5027566;28;20033;-68
2022/08/04 06:30:38;;;;;;;19.48;8.50;;;;;;;23.48;53.06;99467.69;5024714;28;20041;-69
2022/08/04 06:33:12;;;;;;;11.57;6.68;;;;;;;23.51;52.72;99467.66;5027006;28;20033;-70
2022/08/04 06:36:05;;;;;;;7.57;6.78;;;;;;;23.80;52.81;99458.75;5030568;28;20160;-73
2022/08/04 06:38:34;;;;;;;10.13;6.97;;;;;;;23.89;51.20;99463.97;5015602;28;20091;-71
2022/08/04 06:41:02;;;;;;;18.63;7.60;;;;;;;23.91;51.87;99455.78;5029199;28;20036;-70
2022/08/04 06:43:29;;;;;;;11.85;7.43;;;;;;;24.12;51.66;99465.31;5026196;28;20071;-71
2022/08/04 06:45:56;;;;;;;64.90;33.85;;;;;;;24.20;50.60;99469.72;5014648;28;20040;-71
2022/08/04 06:48:23;;;;;;;43.03;20.08;;;;;;;24.38;50.34;99471.53;5016743;28;20501;-71
2022/08/04 06:50:50;;;;;;;58.95;30.15;;;;;;;24.50;49.66;99468.06;5010403;28;20541;-76
2022/08/04 06:53:52;;;;;;;18.42;7.30;;;;;;;24.46;49.12;99458.72;5016825;28;20124;-71
2022/08/04 06:56:19;;;;;;;19.80;12.65;;;;;;;24.65;48.71;99462.91;5028488;28;20450;-68
2022/08/04 06:58:49;;;;;;;13.32;9.15;;;;;;;24.73;48.22;99457.91;5028910;28;20034;-71
2022/08/04 07:01:18;;;;;;;17.58;8.82;;;;;;;24.86;47.56;99455.28;5025207;28;20022;-71
2022/08/04 07:03:44;;;;;;;36.08;19.50;;;;;;;25.04;48.24;99457.00;5028830;28;20465;-69
2022/08/04 07:06:10;;;;;;;16.58;10.60;;;;;;;25.21;47.21;99457.94;5023403;28;20033;-70
2022/08/04 07:08:36;;;;;;;34.53;16.17;;;;;;;25.43;46.96;99452.66;5029359;28;20029;-70
2022/08/04 07:11:02;;;;;;;20.77;10.30;;;;;;;25.55;46.39;99445.50;5044633;28;20038;-69
2022/08/04 07:13:30;;;;;;;7.53;6.13;;;;;;;25.37;45.28;99443.75;5030749;28;20049;-68
2022/08/04 07:16:27;;;;;;;7.15;5.63;;;;;;;25.67;44.76;99449.78;5029490;28;20034;-68
2022/08/04 07:18:52;;;;;;;7.75;6.50;;;;;;;25.85;44.14;99446.53;5030887;28;20104;-68
2022/08/04 07:21:21;;;;;;;7.47;5.50;;;;;;;25.99;43.17;99447.47;5030115;28;20104;-70
2022/08/04 07:23:46;;;;;;;5.53;5.13;;;;;;;25.81;43.11;99454.38;5029032;28;20087;-69
2022/08/04 07:26:14;;;;;;;9.40;5.13;;;;;;;25.97;42.43;99449.97;5030661;28;20408;-71
2022/08/04 07:28:40;;;;;;;11.50;6.53;;;;;;;26.24;42.87;99446.16;5024463;28;20029;-69
2022/08/04 07:31:09;;;;;;;8.25;5.55;;;;;;;26.48;43.10;99444.75;5022509;28;20029;-70
2022/08/04 07:33:35;;;;;;;7.82;5.85;;;;;;;26.42;43.42;99445.75;5023365;28;20025;-70
2022/08/04 07:36:00;;;;;;;11.00;6.20;;;;;;;26.59;42.86;99446.56;5029074;28;20029;-72
2022/08/04 07:38:26;;;;;;;8.18;4.50;;;;;;;26.68;42.03;99452.50;5027873;28;20052;-71
2022/08/04 07:40:51;;;;;;;7.82;5.53;;;;;;;26.73;41.77;99443.34;5043970;28;20070;-71
2022/08/04 07:43:17;;;;;;;7.55;5.47;;;;;;;26.92;41.21;99452.38;5030787;28;20497;-71
2022/08/04 07:45:43;;;;;;;5.90;5.40;;;;;;;26.93;41.56;99451.09;5031501;28;20033;-71
2022/08/04 07:48:10;;;;;;;6.32;5.20;;;;;;;26.96;41.09;99446.50;5022008;28;20091;-72
2022/08/04 07:50:37;;;;;;;10.48;5.40;;;;;;;27.15;42.85;99442.75;5027721;28;20072;-72
2022/08/04 07:53:04;;;;;;;10.38;6.15;;;;;;;27.52;41.78;99439.72;5032887;28;20373;-71
2022/08/04 07:55:29;;;;;;;6.22;5.40;;;;;;;27.43;40.37;99439.53;5023264;28;20038;-71
2022/08/04 07:57:55;;;;;;;8.90;5.50;;;;;;;27.04;41.00;99447.94;5024706;28;20174;-71
2022/08/04 08:00:21;;;;;;;10.30;5.13;;;;;;;27.30;41.50;99446.03;5024048;28;20026;-71
2022/08/04 08:02:53;;;;;;;5.70;5.20;;;;;;;27.45;41.07;99437.03;5021322;28;20029;-73
2022/08/04 08:05:20;;;;;;;7.05;5.32;;;;;;;27.64;39.98;99435.28;5026356;28;20564;-71
2022/08/04 08:07:49;;;;;;;8.05;5.10;;;;;;;27.57;39.53;99430.56;5031897;28;20079;-71
2022/08/04 08:10:15;;;;;;;6.93;5.18;;;;;;;27.67;40.15;99433.59;5033578;28;20511;-71
2022/08/04 08:12:42;;;;;;;7.10;5.38;;;;;;;27.86;39.33;99432.59;5020354;28;20071;-71
2022/08/04 08:15:09;;;;;;;6.32;5.18;;;;;;;28.16;39.40;99421.03;5032222;28;20462;-72
2022/08/04 08:17:35;;;;;;;5.35;4.85;;;;;;;28.40;38.21;99432.22;5027883;28;20033;-71
2022/08/04 08:20:01;;;;;;;7.25;4.25;;;;;;;28.01;38.82;99427.22;5025267;28;20022;-70
2022/08/04 08:22:27;;;;;;;6.90;5.43;;;;;;;27.89;38.80;99425.13;5032002;28;20029;-72
2022/08/04 08:24:53;;;;;;;18.92;5.20;;;;;;;27.81;38.89;99421.66;5021628;28;20078;-71
2022/08/04 08:27:19;;;;;;;6.80;4.97;;;;;;;28.25;39.62;99423.28;5033534;28;20100;-72
2022/08/04 08:29:46;;;;;;;6.45;4.80;;;;;;;28.61;38.23;99425.00;5032624;28;20052;-71
2022/08/04 08:32:12;;;;;;;7.20;4.70;;;;;;;28.76;35.97;99422.44;5033587;28;20078;-72
2022/08/04 08:34:39;;;;;;;7.60;4.63;;;;;;;29.08;37.37;99422.63;5033089;28;20017;-72
2022/08/04 08:37:25;;;;;;;6.68;4.53;;;;;;;29.35;36.27;99429.94;5032652;28;20013;-72
2022/08/04 08:40:09;;;;;;;16.88;5.05;;;;;;;29.49;36.58;99420.00;5025665;28;20554;-72
2022/08/04 08:42:56;;;;;;;5.28;4.32;;;;;;;29.55;35.79;99424.69;5033903;28;20032;-72
2022/08/04 08:45:40;;;;;;;8.65;4.35;;;;;;;29.63;34.48;99431.00;5015080;28;20029;-72
2022/08/04 08:48:25;;;;;;;13.52;3.53;;;;;;;29.79;33.63;99423.44;5013514;28;20510;-72
2022/08/04 08:51:17;;;;;;;5.95;3.80;;;;;;;29.82;32.43;99410.94;5018671;28;20072;-72
2022/08/04 08:54:01;;;;;;;6.25;3.20;;;;;;;30.05;31.54;99418.34;5032439;28;20036;-72
2022/08/04 08:57:02;;;;;;;14.95;3.97;;;;;;;29.97;31.03;99416.97;5030250;28;20536;-72
2022/08/04 08:59:46;;;;;;;10.25;3.42;;;;;;;29.76;30.32;99407.88;5032945;28;20029;-72
2022/08/04 09:02:37;;;;;;;4.50;3.13;;;;;;;29.94;31.15;99404.31;5024644;28;20030;-71
2022/08/04 09:05:02;;;;;;;3.72;3.42;;;;;;;30.09;31.74;99413.22;5032252;28;20105;-73
2022/08/04 09:08:05;;;;;;;8.48;3.08;;;;;;;30.11;29.92;99404.13;5031429;28;20108;-73
2022/08/04 09:10:46;;;;;;;7.75;3.80;;;;;;;30.37;30.38;99398.94;5032877;28;20026;-76
2022/08/04 09:13:26;;;;;;;5.70;2.50;;;;;;;30.45;29.84;99399.44;5027449;28;20028;-72
2022/08/04 09:16:00;;;;;;;5.85;2.25;;;;;;;30.65;27.97;99401.97;5037263;28;20029;-72
2022/08/04 09:18:29;;;;;;;2.42;2.22;;;;;;;30.66;28.21;99394.09;5029636;28;20175;-72
2022/08/04 09:21:03;;;;;;;4.32;2.92;;;;;;;30.80;28.69;99390.59;5030289;28;20057;-74
2022/08/04 09:23:40;;;;;;;5.80;3.50;;;;;;;30.85;26.75;99383.38;5044330;28;20060;-72
2022/08/04 09:26:20;;;;;;;6.97;2.92;;;;;;;30.50;26.74;99390.19;5016669;28;20099;-72
2022/08/04 09:29:02;;;;;;;3.17;2.70;;;;;;;30.65;27.87;99396.19;5029914;28;20033;-73
2022/08/04 09:31:40;;;;;;;4.43;2.60;;;;;;;30.91;27.52;99390.16;5020576;28;20037;-73
2022/08/04 09:34:16;;;;;;;3.25;2.53;;;;;;;30.99;26.67;99386.94;5031049;28;20349;-75
2022/08/04 09:37:01;;;;;;;8.25;3.25;;;;;;;31.18;26.40;99388.56;5028069;28;20044;-77
2022/08/04 09:39:48;;;;;;;6.50;2.53;;;;;;;31.42;26.64;99387.97;5030386;28;20124;-82
2022/08/04 09:42:43;;;;;;;4.97;2.08;;;;;;;31.36;26.15;99387.81;5030054;28;20033;-80
2022/08/04 09:45:33;;;;;;;4.07;2.40;;;;;;;31.21;27.20;99378.94;5021643;28;20040;-75
2022/08/04 09:48:11;;;;;;;5.00;2.65;;;;;;;31.85;27.28;99381.50;5023008;28;20028;-75
2022/08/04 09:50:42;;;;;;;5.30;2.80;;;;;;;32.16;26.28;99377.56;5023113;28;20103;-74
2022/08/04 09:53:32;;;;;;;7.03;3.15;;;;;;;31.24;26.99;99380.88;5027611;28;20033;-73
2022/08/04 09:56:08;;;;;;;3.72;2.85;;;;;;;31.43;27.29;99371.41;5027849;28;20025;-73
2022/08/04 09:58:50;;;;;;;6.30;4.47;;;;;;;31.84;27.22;99371.22;5029963;28;20063;-72
2022/08/04 10:01:19;;;;;;;7.50;2.85;;;;;;;32.30;26.44;99370.28;5023378;28;20056;-73
2022/08/04 10:03:50;;;;;;;14.65;3.33;;;;;;;32.53;25.92;99371.63;5022305;28;20489;-72
2022/08/04 10:06:34;;;;;;;4.13;3.63;;;;;;;32.79;26.01;99371.16;5022407;28;20037;-74
2022/08/04 10:09:29;;;;;;;8.70;4.18;;;;;;;32.69;25.94;99366.72;5029467;28;20508;-73
2022/08/04 10:12:23;;;;;;;6.15;3.40;;;;;;;32.80;25.84;99361.16;5025939;28;20112;-75
2022/08/04 10:14:56;;;;;;;4.13;2.80;;;;;;;32.97;25.87;99361.56;5022506;28;20420;-74
2022/08/04 10:17:44;;;;;;;3.92;3.15;;;;;;;33.22;24.48;99355.75;5032170;28;20044;-79
2022/08/04 10:20:53;;;;;;;11.32;4.30;;;;;;;32.63;25.41;99350.03;5031695;28;20021;-78
2022/08/04 10:23:34;;;;;;;5.65;3.28;;;;;;;33.07;24.63;99353.63;5016567;28;20540;-79
2022/08/04 10:26:21;;;;;;;6.30;2.97;;;;;;;33.05;23.74;99353.28;5024414;28;20048;-78
2022/08/04 10:28:57;;;;;;;5.53;2.67;;;;;;;32.81;23.52;99347.50;5022410;28;20033;-78
2022/08/04 10:31:28;;;;;;;6.88;2.95;;;;;;;33.00;24.03;99342.41;5028111;28;20037;-75
2022/08/04 10:34:00;;;;;;;3.10;2.80;;;;;;;33.19;24.41;99346.75;5025493;28;20025;-75
2022/08/04 10:36:43;;;;;;;3.38;2.90;;;;;;;33.35;23.60;99344.69;5020742;28;20492;-75
2022/08/04 10:39:14;;;;;;;3.63;2.85;;;;;;;32.93;23.33;99342.78;5024906;28;20044;-75
2022/08/04 10:41:55;;;;;;;4.38;2.88;;;;;;;32.94;23.79;99350.16;5026667;28;20403;-76
2022/08/04 10:44:44;;;;;;;7.78;2.88;;;;;;;33.02;23.59;99340.63;5027435;28;20029;-76
2022/08/04 10:47:18;;;;;;;4.53;2.80;;;;;;;32.91;23.32;99329.59;5007024;28;20056;-75
2022/08/04 10:49:47;;;;;;;5.68;2.95;;;;;;;33.28;23.46;99324.78;5024549;28;20410;-76
2022/08/04 10:52:37;;;;;;;9.35;3.30;;;;;;;33.15;24.31;99322.97;5023947;28;20048;-75
2022/08/04 10:55:06;;;;;;;5.22;2.58;;;;;;;33.39;23.23;99330.78;5034940;28;20029;-75
2022/08/04 10:57:40;;;;;;;4.50;2.43;;;;;;;33.29;22.54;99329.28;5031390;28;20113;-75
2022/08/04 11:00:09;;;;;;;3.45;2.70;;;;;;;33.16;23.34;99318.75;5022775;28;20040;-75
2022/08/04 11:03:00;;;;;;;8.52;2.45;;;;;;;33.59;23.28;99326.44;5026190;28;20095;-75
2022/08/04 11:05:54;;;;;;;6.68;2.78;;;;;;;33.70;23.26;99329.56;5020751;28;20061;-75
2022/08/04 11:08:33;;;;;;;4.80;2.45;;;;;;;33.73;22.25;99324.84;5027840;28;20026;-75
2022/08/04 11:11:11;;;;;;;4.72;2.38;;;;;;;33.92;22.72;99313.84;5020784;28;20041;-75
2022/08/04 11:14:05;;;;;;;5.72;2.75;;;;;;;34.08;22.07;99305.94;5045634;28;20049;-76
2022/08/04 11:17:07;;;;;;;6.25;2.42;;;;;;;33.92;22.54;99310.13;5024185;28;20061;-75
2022/08/04 11:20:08;;;;;;;6.97;2.47;;;;;;;34.23;23.34;99300.09;5018892;28;20116;-75
2022/08/04 11:22:38;;;;;;;2.78;2.58;;;;;;;34.24;22.17;99293.00;5034245;28;20434;-75
2022/08/04 11:25:21;;;;;;;3.47;2.55;;;;;;;34.42;22.82;99298.53;5036436;28;20033;-76
2022/08/04 11:27:52;;;;;;;4.40;3.05;;;;;;;34.29;22.20;99292.25;5036811;28;20431;-76
2022/08/04 11:30:18;;;;;;;4.63;2.33;;;;;;;34.32;22.48;99278.84;5037013;28;20037;-76
2022/08/04 11:33:30;;;;;;;10.15;3.15;;;;;;;34.39;21.86;99284.22;5035480;28;20044;-75
2022/08/04 11:36:19;;;;;;;3.13;2.30;;;;;;;34.35;21.95;99283.66;5029870;28;20041;-75
2022/08/04 11:39:07;;;;;;;2.95;2.42;;;;;;;34.56;22.45;99275.78;5051018;28;20084;-76
2022/08/04 11:41:51;;;;;;;5.85;2.97;;;;;;;34.72;22.20;99283.91;5032565;28;20034;-75
2022/08/04 11:44:31;;;;;;;7.40;2.70;;;;;;;34.71;22.46;99278.63;5033428;28;20021;-72
2022/08/04 11:47:06;;;;;;;2.67;2.47;;;;;;;34.79;21.34;99271.06;5031660;28;20033;-73
2022/08/04 11:49:40;;;;;;;2.80;2.60;;;;;;;34.70;20.11;99274.94;5034597;28;20033;-73
2022/08/04 11:52:08;;;;;;;5.25;2.47;;;;;;;34.16;20.42;99263.59;5035549;28;20029;-73
2022/08/04 11:54:37;;;;;;;4.18;2.50;;;;;;;34.53;20.53;99266.00;5037448;28;20116;-73
2022/08/04 11:57:03;;;;;;;11.57;2.95;;;;;;;34.38;20.40;99259.41;5036441;28;20171;-73
2022/08/04 11:59:32;;;;;;;2.55;2.35;;;;;;;34.43;21.43;99255.81;5036198;28;20053;-73
2022/08/04 12:02:28;;;;;;;4.20;2.78;;;;;;;33.89;21.84;99256.81;5024402;28;20034;-73
2022/08/04 12:04:57;;;;;;;4.10;2.75;;;;;;;33.74;21.92;99251.84;5023039;28;20446;-72
2022/08/04 12:07:58;;;;;;;3.90;2.22;;;;;;;33.25;22.33;99251.28;5036177;28;20025;-73
2022/08/04 12:10:36;;;;;;;5.93;2.35;;;;;;;33.79;22.17;99243.75;4981235;28;20095;-73
2022/08/04 12:13:37;;;;;;;3.88;2.30;;;;;;;33.77;21.46;99252.16;5037002;28;20026;-72
2022/08/04 12:16:16;;;;;;;2.83;2.58;;;;;;;34.42;21.53;99239.69;4956131;28;20071;-73
2022/08/04 12:18:45;;;;;;;;;;;;;;;34.69;20.10;99246.38;5027073;28;20034;-72
2022/08/04 12:21:22;;;;;;;4.28;2.55;;;;;;;34.72;20.49;99242.47;5027619;28;19913;-73
2022/08/04 12:23:52;;;;;;;3.28;2.70;;;;;;;35.00;19.90;99244.91;5027913;28;20032;-72
2022/08/04 12:26:26;;;;;;;2.45;2.30;;;;;;;35.17;20.20;99238.50;5049463;28;20032;-73
2022/08/04 12:28:58;;;;;;;4.18;2.60;;;;;;;35.05;20.13;99241.28;5030820;28;20017;-72